sensor_id;sensor_type;location;lat;lon;timestamp;P1;durP1;ratioP1;P2;durP2;ratioP2
77158;SDS011;66129;45.890;13.714;2023-08-07T00:00:11;2.95;;;1.20;;
77158;SDS011;66129;45.890;13.714;2023-08-07T00:02:37;2.55;;;1.00;;
77158;SDS011;66129;45.890;13.714;2023-08-07T00:05:03;2.45;;;1.05;;
77158;SDS011;66129;45.890;13.714;2023-08-07T00:07:29;1.67;;;0.90;;
77158;SDS011;66129;45.890;13.714;2023-08-07T00:09:54;1.15;;;0.80;;
77158;SDS011;66129;45.890;13.714;2023-08-07T00:12:20;2.10;;;1.10;;
77158;SDS011;66129;45.890;13.714;2023-08-07T00:14:47;1.55;;;0.77;;
77158;SDS011;66129;45.890;13.714;2023-08-07T00:17:13;2.95;;;1.88;;
77158;SDS011;66129;45.890;13.714;2023-08-07T00:19:38;1.58;;;0.82;;
77158;SDS011;66129;45.890;13.714;2023-08-07T00:22:04;3.35;;;1.10;;
77158;SDS011;66129;45.890;13.714;2023-08-07T00:24:29;2.13;;;1.02;;
77158;SDS011;66129;45.890;13.714;2023-08-07T00:26:55;2.83;;;1.02;;
77158;SDS011;66129;45.890;13.714;2023-08-07T00:29:21;2.92;;;1.10;;
77158;SDS011;66129;45.890;13.714;2023-08-07T00:31:46;2.08;;;1.10;;
77158;SDS011;66129;45.890;13.714;2023-08-07T00:34:12;3.10;;;0.85;;
77158;SDS011;66129;45.890;13.714;2023-08-07T00:36:37;2.63;;;1.13;;
77158;SDS011;66129;45.890;13.714;2023-08-07T00:39:03;1.85;;;1.02;;
77158;SDS011;66129;45.890;13.714;2023-08-07T00:41:29;1.13;;;0.80;;
77158;SDS011;66129;45.890;13.714;2023-08-07T00:43:54;3.10;;;0.90;;
77158;SDS011;66129;45.890;13.714;2023-08-07T00:46:20;1.38;;;0.90;;
77158;SDS011;66129;45.890;13.714;2023-08-07T00:48:46;1.65;;;0.90;;
77158;SDS011;66129;45.890;13.714;2023-08-07T00:51:12;1.08;;;0.88;;
77158;SDS011;66129;45.890;13.714;2023-08-07T00:53:38;1.35;;;0.85;;
77158;SDS011;66129;45.890;13.714;2023-08-07T00:56:05;1.60;;;0.82;;
77158;SDS011;66129;45.890;13.714;2023-08-07T00:58:31;1.50;;;0.85;;
77158;SDS011;66129;45.890;13.714;2023-08-07T01:00:57;1.75;;;1.13;;
77158;SDS011;66129;45.890;13.714;2023-08-07T01:03:23;1.52;;;0.80;;
77158;SDS011;66129;45.890;13.714;2023-08-07T01:05:49;2.60;;;1.25;;
77158;SDS011;66129;45.890;13.714;2023-08-07T01:08:14;2.13;;;1.20;;
77158;SDS011;66129;45.890;13.714;2023-08-07T01:15:55;5.35;;;1.00;;
77158;SDS011;66129;45.890;13.714;2023-08-07T01:18:32;1.83;;;0.93;;
77158;SDS011;66129;45.890;13.714;2023-08-07T01:21:00;1.83;;;1.25;;
77158;SDS011;66129;45.890;13.714;2023-08-07T01:23:25;1.92;;;1.25;;
77158;SDS011;66129;45.890;13.714;2023-08-07T01:25:51;3.30;;;0.93;;
77158;SDS011;66129;45.890;13.714;2023-08-07T01:28:19;1.58;;;1.10;;
77158;SDS011;66129;45.890;13.714;2023-08-07T01:30:59;2.55;;;1.15;;
77158;SDS011;66129;45.890;13.714;2023-08-07T01:33:40;1.80;;;1.13;;
77158;SDS011;66129;45.890;13.714;2023-08-07T01:36:13;1.20;;;0.90;;
77158;SDS011;66129;45.890;13.714;2023-08-07T01:38:41;1.48;;;0.95;;
77158;SDS011;66129;45.890;13.714;2023-08-07T01:41:08;4.28;;;1.42;;
77158;SDS011;66129;45.890;13.714;2023-08-07T01:43:34;1.10;;;0.80;;
77158;SDS011;66129;45.890;13.714;2023-08-07T01:46:01;2.17;;;1.60;;
77158;SDS011;66129;45.890;13.714;2023-08-07T01:48:27;1.55;;;1.10;;
77158;SDS011;66129;45.890;13.714;2023-08-07T01:50:53;2.88;;;1.00;;
77158;SDS011;66129;45.890;13.714;2023-08-07T01:53:19;2.00;;;1.13;;
77158;SDS011;66129;45.890;13.714;2023-08-07T01:55:45;4.38;;;1.30;;
77158;SDS011;66129;45.890;13.714;2023-08-07T01:58:10;1.83;;;1.02;;
77158;SDS011;66129;45.890;13.714;2023-08-07T02:00:37;5.30;;;1.17;;
77158;SDS011;66129;45.890;13.714;2023-08-07T02:03:02;1.25;;;0.90;;
77158;SDS011;66129;45.890;13.714;2023-08-07T02:05:28;1.88;;;1.13;;
77158;SDS011;66129;45.890;13.714;2023-08-07T02:07:53;1.88;;;0.90;;
77158;SDS011;66129;45.890;13.714;2023-08-07T02:10:21;1.50;;;1.30;;
77158;SDS011;66129;45.890;13.714;2023-08-07T02:12:47;1.75;;;1.20;;
77158;SDS011;66129;45.890;13.714;2023-08-07T02:15:13;2.40;;;1.10;;
77158;SDS011;66129;45.890;13.714;2023-08-07T02:17:39;2.72;;;1.08;;
77158;SDS011;66129;45.890;13.714;2023-08-07T02:20:06;1.05;;;0.75;;
77158;SDS011;66129;45.890;13.714;2023-08-07T02:22:32;3.78;;;1.17;;
77158;SDS011;66129;45.890;13.714;2023-08-07T02:24:57;2.08;;;1.10;;
77158;SDS011;66129;45.890;13.714;2023-08-07T02:27:23;4.53;;;0.95;;
77158;SDS011;66129;45.890;13.714;2023-08-07T02:29:49;3.30;;;0.80;;
77158;SDS011;66129;45.890;13.714;2023-08-07T02:32:16;2.08;;;0.85;;
77158;SDS011;66129;45.890;13.714;2023-08-07T02:34:41;5.65;;;1.20;;
77158;SDS011;66129;45.890;13.714;2023-08-07T02:37:07;2.88;;;0.98;;
77158;SDS011;66129;45.890;13.714;2023-08-07T02:39:33;4.63;;;1.20;;
77158;SDS011;66129;45.890;13.714;2023-08-07T02:41:58;8.52;;;1.67;;
77158;SDS011;66129;45.890;13.714;2023-08-07T02:44:24;4.03;;;1.38;;
77158;SDS011;66129;45.890;13.714;2023-08-07T02:46:49;2.33;;;1.52;;
77158;SDS011;66129;45.890;13.714;2023-08-07T02:49:15;1.00;;;0.88;;
77158;SDS011;66129;45.890;13.714;2023-08-07T02:51:40;3.63;;;0.90;;
77158;SDS011;66129;45.890;13.714;2023-08-07T02:54:06;1.50;;;1.00;;
77158;SDS011;66129;45.890;13.714;2023-08-07T02:56:32;2.38;;;1.35;;
77158;SDS011;66129;45.890;13.714;2023-08-07T02:58:58;1.95;;;0.90;;
77158;SDS011;66129;45.890;13.714;2023-08-07T03:01:24;4.30;;;1.30;;
77158;SDS011;66129;45.890;13.714;2023-08-07T03:03:49;1.75;;;1.08;;
77158;SDS011;66129;45.890;13.714;2023-08-07T03:06:15;2.88;;;1.08;;
77158;SDS011;66129;45.890;13.714;2023-08-07T03:08:41;1.00;;;0.82;;
77158;SDS011;66129;45.890;13.714;2023-08-07T03:11:07;2.10;;;1.23;;
77158;SDS011;66129;45.890;13.714;2023-08-07T03:13:33;2.30;;;1.20;;
77158;SDS011;66129;45.890;13.714;2023-08-07T03:15:59;5.85;;;1.30;;
77158;SDS011;66129;45.890;13.714;2023-08-07T03:18:26;8.02;;;0.98;;
77158;SDS011;66129;45.890;13.714;2023-08-07T03:20:52;2.63;;;0.90;;
77158;SDS011;66129;45.890;13.714;2023-08-07T03:23:19;2.92;;;1.10;;
77158;SDS011;66129;45.890;13.714;2023-08-07T03:25:44;3.47;;;1.40;;
77158;SDS011;66129;45.890;13.714;2023-08-07T03:28:10;1.15;;;0.93;;
77158;SDS011;66129;45.890;13.714;2023-08-07T03:30:35;1.60;;;0.98;;
77158;SDS011;66129;45.890;13.714;2023-08-07T03:33:03;2.75;;;1.02;;
77158;SDS011;66129;45.890;13.714;2023-08-07T03:35:28;2.75;;;1.40;;
77158;SDS011;66129;45.890;13.714;2023-08-07T03:37:54;2.03;;;1.13;;
77158;SDS011;66129;45.890;13.714;2023-08-07T03:40:19;4.40;;;1.05;;
77158;SDS011;66129;45.890;13.714;2023-08-07T03:42:45;2.20;;;1.80;;
77158;SDS011;66129;45.890;13.714;2023-08-07T03:45:10;6.43;;;1.15;;
77158;SDS011;66129;45.890;13.714;2023-08-07T03:47:36;3.65;;;0.90;;
77158;SDS011;66129;45.890;13.714;2023-08-07T03:50:01;3.42;;;1.27;;
77158;SDS011;66129;45.890;13.714;2023-08-07T03:52:27;5.13;;;1.08;;
77158;SDS011;66129;45.890;13.714;2023-08-07T03:54:52;3.50;;;1.02;;
77158;SDS011;66129;45.890;13.714;2023-08-07T03:57:18;4.45;;;1.17;;
77158;SDS011;66129;45.890;13.714;2023-08-07T03:59:43;1.65;;;1.10;;
77158;SDS011;66129;45.890;13.714;2023-08-07T04:02:10;5.90;;;1.30;;
77158;SDS011;66129;45.890;13.714;2023-08-07T04:04:36;5.20;;;1.13;;
77158;SDS011;66129;45.890;13.714;2023-08-07T04:07:01;5.28;;;1.30;;
77158;SDS011;66129;45.890;13.714;2023-08-07T04:09:27;5.55;;;1.00;;
77158;SDS011;66129;45.890;13.714;2023-08-07T04:11:52;4.10;;;1.13;;
77158;SDS011;66129;45.890;13.714;2023-08-07T04:14:18;2.40;;;1.30;;
77158;SDS011;66129;45.890;13.714;2023-08-07T04:16:43;3.72;;;1.20;;
77158;SDS011;66129;45.890;13.714;2023-08-07T04:19:09;1.70;;;1.23;;
77158;SDS011;66129;45.890;13.714;2023-08-07T04:21:35;2.08;;;1.30;;
77158;SDS011;66129;45.890;13.714;2023-08-07T04:24:00;2.60;;;1.30;;
77158;SDS011;66129;45.890;13.714;2023-08-07T04:26:26;2.50;;;1.13;;
77158;SDS011;66129;45.890;13.714;2023-08-07T04:28:52;2.15;;;1.17;;
77158;SDS011;66129;45.890;13.714;2023-08-07T04:31:17;1.73;;;0.93;;
77158;SDS011;66129;45.890;13.714;2023-08-07T04:33:43;1.20;;;0.80;;
77158;SDS011;66129;45.890;13.714;2023-08-07T04:36:08;1.90;;;1.20;;
77158;SDS011;66129;45.890;13.714;2023-08-07T04:38:34;2.97;;;1.10;;
77158;SDS011;66129;45.890;13.714;2023-08-07T04:40:59;1.63;;;1.00;;
77158;SDS011;66129;45.890;13.714;2023-08-07T04:43:25;1.55;;;0.85;;
77158;SDS011;66129;45.890;13.714;2023-08-07T04:45:50;7.05;;;0.95;;
77158;SDS011;66129;45.890;13.714;2023-08-07T04:48:16;4.20;;;1.17;;
77158;SDS011;66129;45.890;13.714;2023-08-07T04:50:42;2.05;;;0.90;;
77158;SDS011;66129;45.890;13.714;2023-08-07T04:53:08;1.33;;;0.82;;
77158;SDS011;66129;45.890;13.714;2023-08-07T04:55:34;0.90;;;0.60;;
77158;SDS011;66129;45.890;13.714;2023-08-07T04:57:59;1.55;;;0.75;;
77158;SDS011;66129;45.890;13.714;2023-08-07T05:00:25;1.20;;;0.75;;
77158;SDS011;66129;45.890;13.714;2023-08-07T05:02:50;4.47;;;0.77;;
77158;SDS011;66129;45.890;13.714;2023-08-07T05:05:16;3.45;;;0.90;;
77158;SDS011;66129;45.890;13.714;2023-08-07T05:07:45;1.17;;;0.90;;
77158;SDS011;66129;45.890;13.714;2023-08-07T05:10:11;2.20;;;1.08;;
77158;SDS011;66129;45.890;13.714;2023-08-07T05:12:37;0.80;;;0.70;;
77158;SDS011;66129;45.890;13.714;2023-08-07T05:15:02;1.27;;;0.70;;
77158;SDS011;66129;45.890;13.714;2023-08-07T05:17:28;1.67;;;0.90;;
77158;SDS011;66129;45.890;13.714;2023-08-07T05:19:53;1.23;;;0.70;;
77158;SDS011;66129;45.890;13.714;2023-08-07T05:22:19;1.55;;;0.80;;
77158;SDS011;66129;45.890;13.714;2023-08-07T05:24:44;1.77;;;0.73;;
77158;SDS011;66129;45.890;13.714;2023-08-07T05:27:10;0.95;;;0.68;;
77158;SDS011;66129;45.890;13.714;2023-08-07T05:29:36;5.05;;;0.98;;
77158;SDS011;66129;45.890;13.714;2023-08-07T05:32:08;3.40;;;1.05;;
77158;SDS011;66129;45.890;13.714;2023-08-07T05:34:35;1.35;;;0.60;;
77158;SDS011;66129;45.890;13.714;2023-08-07T05:37:01;1.45;;;0.60;;
77158;SDS011;66129;45.890;13.714;2023-08-07T05:39:26;1.17;;;0.82;;
77158;SDS011;66129;45.890;13.714;2023-08-07T05:41:52;1.67;;;0.77;;
77158;SDS011;66129;45.890;13.714;2023-08-07T05:44:19;4.05;;;0.90;;
77158;SDS011;66129;45.890;13.714;2023-08-07T05:46:45;2.15;;;0.70;;
77158;SDS011;66129;45.890;13.714;2023-08-07T05:49:10;2.15;;;0.70;;
77158;SDS011;66129;45.890;13.714;2023-08-07T05:51:36;2.30;;;0.93;;
77158;SDS011;66129;45.890;13.714;2023-08-07T05:54:01;1.25;;;0.70;;
77158;SDS011;66129;45.890;13.714;2023-08-07T05:56:27;4.20;;;1.67;;
77158;SDS011;66129;45.890;13.714;2023-08-07T05:58:53;1.77;;;0.55;;
77158;SDS011;66129;45.890;13.714;2023-08-07T06:01:18;2.55;;;0.77;;
77158;SDS011;66129;45.890;13.714;2023-08-07T06:03:44;2.70;;;0.70;;
77158;SDS011;66129;45.890;13.714;2023-08-07T06:06:09;0.73;;;0.50;;
77158;SDS011;66129;45.890;13.714;2023-08-07T06:08:35;1.75;;;0.85;;
77158;SDS011;66129;45.890;13.714;2023-08-07T06:11:00;3.50;;;0.90;;
77158;SDS011;66129;45.890;13.714;2023-08-07T06:13:28;2.55;;;0.73;;
77158;SDS011;66129;45.890;13.714;2023-08-07T06:15:54;2.42;;;0.65;;
77158;SDS011;66129;45.890;13.714;2023-08-07T06:18:19;2.13;;;0.93;;
77158;SDS011;66129;45.890;13.714;2023-08-07T06:20:45;5.05;;;1.02;;
77158;SDS011;66129;45.890;13.714;2023-08-07T06:23:11;0.75;;;0.50;;
77158;SDS011;66129;45.890;13.714;2023-08-07T06:25:37;0.82;;;0.50;;
77158;SDS011;66129;45.890;13.714;2023-08-07T06:28:03;2.40;;;0.82;;
77158;SDS011;66129;45.890;13.714;2023-08-07T06:30:30;0.85;;;0.50;;
77158;SDS011;66129;45.890;13.714;2023-08-07T06:32:56;0.77;;;0.60;;
77158;SDS011;66129;45.890;13.714;2023-08-07T06:35:22;0.80;;;0.50;;
77158;SDS011;66129;45.890;13.714;2023-08-07T06:37:48;0.85;;;0.52;;
77158;SDS011;66129;45.890;13.714;2023-08-07T06:40:13;0.60;;;0.57;;
77158;SDS011;66129;45.890;13.714;2023-08-07T06:42:39;1.55;;;0.73;;
77158;SDS011;66129;45.890;13.714;2023-08-07T06:45:05;1.10;;;0.70;;
77158;SDS011;66129;45.890;13.714;2023-08-07T06:47:31;6.40;;;2.25;;
77158;SDS011;66129;45.890;13.714;2023-08-07T06:49:57;1.50;;;0.80;;
77158;SDS011;66129;45.890;13.714;2023-08-07T06:52:22;2.83;;;0.90;;
77158;SDS011;66129;45.890;13.714;2023-08-07T06:54:48;1.65;;;0.70;;
77158;SDS011;66129;45.890;13.714;2023-08-07T06:57:14;1.45;;;0.65;;
77158;SDS011;66129;45.890;13.714;2023-08-07T06:59:39;2.33;;;0.75;;
77158;SDS011;66129;45.890;13.714;2023-08-07T07:02:05;2.85;;;0.80;;
77158;SDS011;66129;45.890;13.714;2023-08-07T07:04:31;3.67;;;1.63;;
77158;SDS011;66129;45.890;13.714;2023-08-07T07:06:56;1.67;;;0.70;;
77158;SDS011;66129;45.890;13.714;2023-08-07T07:09:22;3.05;;;0.75;;
77158;SDS011;66129;45.890;13.714;2023-08-07T07:11:47;2.47;;;0.90;;
77158;SDS011;66129;45.890;13.714;2023-08-07T07:14:13;1.83;;;0.68;;
77158;SDS011;66129;45.890;13.714;2023-08-07T07:16:38;1.92;;;1.13;;
77158;SDS011;66129;45.890;13.714;2023-08-07T07:19:04;1.77;;;0.90;;
77158;SDS011;66129;45.890;13.714;2023-08-07T07:21:33;1.30;;;0.88;;
77158;SDS011;66129;45.890;13.714;2023-08-07T07:23:59;4.40;;;0.90;;
77158;SDS011;66129;45.890;13.714;2023-08-07T07:26:25;1.35;;;0.80;;
77158;SDS011;66129;45.890;13.714;2023-08-07T07:28:51;3.33;;;1.20;;
77158;SDS011;66129;45.890;13.714;2023-08-07T07:31:17;1.95;;;0.70;;
77158;SDS011;66129;45.890;13.714;2023-08-07T07:33:42;2.13;;;0.70;;
77158;SDS011;66129;45.890;13.714;2023-08-07T07:36:13;2.28;;;0.65;;
77158;SDS011;66129;45.890;13.714;2023-08-07T07:38:40;1.45;;;0.77;;
77158;SDS011;66129;45.890;13.714;2023-08-07T07:41:05;0.43;;;0.40;;
77158;SDS011;66129;45.890;13.714;2023-08-07T07:43:35;1.08;;;0.70;;
77158;SDS011;66129;45.890;13.714;2023-08-07T07:46:01;2.33;;;0.80;;
77158;SDS011;66129;45.890;13.714;2023-08-07T07:48:26;1.67;;;0.80;;
77158;SDS011;66129;45.890;13.714;2023-08-07T07:50:56;1.30;;;0.70;;
77158;SDS011;66129;45.890;13.714;2023-08-07T07:53:23;1.50;;;0.80;;
77158;SDS011;66129;45.890;13.714;2023-08-07T07:55:49;2.40;;;0.73;;
77158;SDS011;66129;45.890;13.714;2023-08-07T07:58:14;3.85;;;1.00;;
77158;SDS011;66129;45.890;13.714;2023-08-07T08:00:40;3.05;;;1.33;;
77158;SDS011;66129;45.890;13.714;2023-08-07T08:03:06;1.90;;;0.77;;
77158;SDS011;66129;45.890;13.714;2023-08-07T08:05:31;1.05;;;0.85;;
77158;SDS011;66129;45.890;13.714;2023-08-07T08:07:57;2.13;;;0.95;;
77158;SDS011;66129;45.890;13.714;2023-08-07T08:10:23;1.98;;;1.23;;
77158;SDS011;66129;45.890;13.714;2023-08-07T08:12:50;1.67;;;0.68;;
77158;SDS011;66129;45.890;13.714;2023-08-07T08:15:16;1.60;;;0.70;;
77158;SDS011;66129;45.890;13.714;2023-08-07T08:17:41;1.60;;;0.60;;
77158;SDS011;66129;45.890;13.714;2023-08-07T08:20:07;3.63;;;1.10;;
77158;SDS011;66129;45.890;13.714;2023-08-07T08:22:33;3.42;;;0.85;;
77158;SDS011;66129;45.890;13.714;2023-08-07T08:24:59;2.60;;;0.90;;
77158;SDS011;66129;45.890;13.714;2023-08-07T08:27:24;1.50;;;0.80;;
77158;SDS011;66129;45.890;13.714;2023-08-07T08:29:50;4.32;;;0.90;;
77158;SDS011;66129;45.890;13.714;2023-08-07T08:32:15;1.63;;;0.80;;
77158;SDS011;66129;45.890;13.714;2023-08-07T08:34:41;1.73;;;0.95;;
77158;SDS011;66129;45.890;13.714;2023-08-07T08:37:07;1.27;;;0.75;;
77158;SDS011;66129;45.890;13.714;2023-08-07T08:39:33;1.55;;;0.90;;
77158;SDS011;66129;45.890;13.714;2023-08-07T08:41:58;1.13;;;0.80;;
77158;SDS011;66129;45.890;13.714;2023-08-07T08:44:24;0.90;;;0.70;;
77158;SDS011;66129;45.890;13.714;2023-08-07T08:46:52;1.02;;;0.60;;
77158;SDS011;66129;45.890;13.714;2023-08-07T08:49:23;2.03;;;0.88;;
77158;SDS011;66129;45.890;13.714;2023-08-07T08:51:56;1.02;;;0.63;;
77158;SDS011;66129;45.890;13.714;2023-08-07T08:54:21;0.82;;;0.50;;
77158;SDS011;66129;45.890;13.714;2023-08-07T08:56:48;2.08;;;0.70;;
77158;SDS011;66129;45.890;13.714;2023-08-07T08:59:14;2.58;;;0.70;;
77158;SDS011;66129;45.890;13.714;2023-08-07T09:01:43;1.75;;;0.60;;
77158;SDS011;66129;45.890;13.714;2023-08-07T09:04:09;1.25;;;0.38;;
77158;SDS011;66129;45.890;13.714;2023-08-07T09:06:35;0.95;;;0.50;;
77158;SDS011;66129;45.890;13.714;2023-08-07T09:09:01;1.00;;;0.70;;
77158;SDS011;66129;45.890;13.714;2023-08-07T09:11:28;2.03;;;0.70;;
77158;SDS011;66129;45.890;13.714;2023-08-07T09:13:55;3.92;;;0.75;;
77158;SDS011;66129;45.890;13.714;2023-08-07T09:16:21;1.08;;;0.65;;
77158;SDS011;66129;45.890;13.714;2023-08-07T09:18:50;1.10;;;0.50;;
77158;SDS011;66129;45.890;13.714;2023-08-07T09:21:20;2.05;;;0.75;;
77158;SDS011;66129;45.890;13.714;2023-08-07T09:23:46;1.23;;;0.60;;
77158;SDS011;66129;45.890;13.714;2023-08-07T09:26:12;1.10;;;0.70;;
77158;SDS011;66129;45.890;13.714;2023-08-07T09:28:37;1.70;;;0.88;;
77158;SDS011;66129;45.890;13.714;2023-08-07T09:31:05;1.13;;;0.60;;
77158;SDS011;66129;45.890;13.714;2023-08-07T09:33:31;0.63;;;0.52;;
77158;SDS011;66129;45.890;13.714;2023-08-07T09:36:00;1.10;;;0.55;;
77158;SDS011;66129;45.890;13.714;2023-08-07T09:38:28;0.80;;;0.50;;
77158;SDS011;66129;45.890;13.714;2023-08-07T09:40:58;1.42;;;0.70;;
77158;SDS011;66129;45.890;13.714;2023-08-07T09:43:25;0.63;;;0.30;;
77158;SDS011;66129;45.890;13.714;2023-08-07T09:45:50;0.68;;;0.40;;
77158;SDS011;66129;45.890;13.714;2023-08-07T09:48:22;1.98;;;0.73;;
77158;SDS011;66129;45.890;13.714;2023-08-07T09:50:53;1.77;;;0.80;;
77158;SDS011;66129;45.890;13.714;2023-08-07T09:53:24;1.38;;;0.73;;
77158;SDS011;66129;45.890;13.714;2023-08-07T09:55:54;1.33;;;0.60;;
77158;SDS011;66129;45.890;13.714;2023-08-07T09:58:20;1.48;;;0.75;;
77158;SDS011;66129;45.890;13.714;2023-08-07T10:00:48;2.55;;;0.93;;
77158;SDS011;66129;45.890;13.714;2023-08-07T10:03:14;1.27;;;0.88;;
77158;SDS011;66129;45.890;13.714;2023-08-07T10:05:43;1.25;;;0.68;;
77158;SDS011;66129;45.890;13.714;2023-08-07T10:08:11;1.52;;;0.68;;
77158;SDS011;66129;45.890;13.714;2023-08-07T10:10:37;1.60;;;0.95;;
77158;SDS011;66129;45.890;13.714;2023-08-07T10:13:03;1.48;;;0.63;;
77158;SDS011;66129;45.890;13.714;2023-08-07T10:15:31;2.45;;;0.60;;
77158;SDS011;66129;45.890;13.714;2023-08-07T10:17:57;0.95;;;0.47;;
77158;SDS011;66129;45.890;13.714;2023-08-07T10:20:24;0.85;;;0.47;;
77158;SDS011;66129;45.890;13.714;2023-08-07T10:22:52;1.00;;;0.77;;
77158;SDS011;66129;45.890;13.714;2023-08-07T10:25:21;0.90;;;0.65;;
77158;SDS011;66129;45.890;13.714;2023-08-07T10:27:49;0.98;;;0.63;;
77158;SDS011;66129;45.890;13.714;2023-08-07T10:30:17;2.30;;;0.90;;
77158;SDS011;66129;45.890;13.714;2023-08-07T10:32:45;1.23;;;0.57;;
77158;SDS011;66129;45.890;13.714;2023-08-07T10:35:34;0.73;;;0.40;;
77158;SDS011;66129;45.890;13.714;2023-08-07T10:38:11;0.75;;;0.38;;
77158;SDS011;66129;45.890;13.714;2023-08-07T10:43:25;1.13;;;0.50;;
77158;SDS011;66129;45.890;13.714;2023-08-07T10:45:52;0.82;;;0.40;;
77158;SDS011;66129;45.890;13.714;2023-08-07T10:48:18;0.55;;;0.40;;
77158;SDS011;66129;45.890;13.714;2023-08-07T10:50:51;1.55;;;0.73;;
77158;SDS011;66129;45.890;13.714;2023-08-07T10:56:02;0.08;;;0.08;;
77158;SDS011;66129;45.890;13.714;2023-08-07T10:58:35;0.57;;;0.40;;
77158;SDS011;66129;45.890;13.714;2023-08-07T11:03:53;0.38;;;0.30;;
77158;SDS011;66129;45.890;13.714;2023-08-07T11:06:21;0.95;;;0.52;;
77158;SDS011;66129;45.890;13.714;2023-08-07T11:08:49;2.63;;;0.40;;
77158;SDS011;66129;45.890;13.714;2023-08-07T11:11:15;0.52;;;0.50;;
77158;SDS011;66129;45.890;13.714;2023-08-07T11:13:40;1.40;;;0.60;;
77158;SDS011;66129;45.890;13.714;2023-08-07T11:16:07;0.98;;;0.70;;
77158;SDS011;66129;45.890;13.714;2023-08-07T11:18:32;0.65;;;0.40;;
77158;SDS011;66129;45.890;13.714;2023-08-07T11:21:00;0.75;;;0.45;;
77158;SDS011;66129;45.890;13.714;2023-08-07T11:23:26;0.77;;;0.43;;
77158;SDS011;66129;45.890;13.714;2023-08-07T11:25:55;0.88;;;0.50;;
77158;SDS011;66129;45.890;13.714;2023-08-07T11:28:22;1.63;;;0.50;;
77158;SDS011;66129;45.890;13.714;2023-08-07T11:30:49;0.28;;;0.28;;
77158;SDS011;66129;45.890;13.714;2023-08-07T11:33:17;0.80;;;0.47;;
77158;SDS011;66129;45.890;13.714;2023-08-07T11:35:47;0.63;;;0.47;;
77158;SDS011;66129;45.890;13.714;2023-08-07T11:38:15;0.68;;;0.40;;
77158;SDS011;66129;45.890;13.714;2023-08-07T11:40:56;0.90;;;0.30;;
77158;SDS011;66129;45.890;13.714;2023-08-07T11:43:23;0.80;;;0.50;;
77158;SDS011;66129;45.890;13.714;2023-08-07T11:45:49;1.00;;;0.55;;
77158;SDS011;66129;45.890;13.714;2023-08-07T11:48:15;0.60;;;0.30;;
77158;SDS011;66129;45.890;13.714;2023-08-07T11:50:40;1.10;;;0.40;;
77158;SDS011;66129;45.890;13.714;2023-08-07T11:53:07;1.08;;;0.60;;
77158;SDS011;66129;45.890;13.714;2023-08-07T11:55:33;0.70;;;0.47;;
77158;SDS011;66129;45.890;13.714;2023-08-07T11:57:59;1.00;;;0.65;;
77158;SDS011;66129;45.890;13.714;2023-08-07T12:00:28;0.68;;;0.40;;
77158;SDS011;66129;45.890;13.714;2023-08-07T12:02:54;0.95;;;0.50;;
77158;SDS011;66129;45.890;13.714;2023-08-07T12:05:19;0.82;;;0.63;;
77158;SDS011;66129;45.890;13.714;2023-08-07T12:07:46;0.65;;;0.43;;
77158;SDS011;66129;45.890;13.714;2023-08-07T12:10:13;1.00;;;0.30;;
77158;SDS011;66129;45.890;13.714;2023-08-07T12:12:39;0.65;;;0.40;;
77158;SDS011;66129;45.890;13.714;2023-08-07T12:15:08;0.28;;;0.20;;
77158;SDS011;66129;45.890;13.714;2023-08-07T12:17:35;0.88;;;0.60;;
77158;SDS011;66129;45.890;13.714;2023-08-07T12:20:03;0.30;;;0.30;;
77158;SDS011;66129;45.890;13.714;2023-08-07T12:22:29;0.68;;;0.50;;
77158;SDS011;66129;45.890;13.714;2023-08-07T12:24:55;0.38;;;0.38;;
77158;SDS011;66129;45.890;13.714;2023-08-07T12:27:20;1.80;;;0.63;;
77158;SDS011;66129;45.890;13.714;2023-08-07T12:29:46;0.65;;;0.38;;
77158;SDS011;66129;45.890;13.714;2023-08-07T12:32:11;1.65;;;0.45;;
77158;SDS011;66129;45.890;13.714;2023-08-07T12:34:37;0.47;;;0.20;;
77158;SDS011;66129;45.890;13.714;2023-08-07T12:37:06;1.10;;;0.50;;
77158;SDS011;66129;45.890;13.714;2023-08-07T12:39:31;1.23;;;0.45;;
77158;SDS011;66129;45.890;13.714;2023-08-07T12:41:57;0.60;;;0.47;;
77158;SDS011;66129;45.890;13.714;2023-08-07T12:44:23;0.30;;;0.30;;
77158;SDS011;66129;45.890;13.714;2023-08-07T12:46:49;1.30;;;0.40;;
77158;SDS011;66129;45.890;13.714;2023-08-07T12:49:15;0.60;;;0.47;;
77158;SDS011;66129;45.890;13.714;2023-08-07T12:51:40;0.28;;;0.28;;
77158;SDS011;66129;45.890;13.714;2023-08-07T12:54:06;2.05;;;0.68;;
77158;SDS011;66129;45.890;13.714;2023-08-07T12:56:31;3.17;;;0.50;;
77158;SDS011;66129;45.890;13.714;2023-08-07T12:58:57;2.85;;;0.90;;
77158;SDS011;66129;45.890;13.714;2023-08-07T13:01:22;0.40;;;0.30;;
77158;SDS011;66129;45.890;13.714;2023-08-07T13:03:48;0.68;;;0.40;;
77158;SDS011;66129;45.890;13.714;2023-08-07T13:06:14;1.98;;;0.90;;
77158;SDS011;66129;45.890;13.714;2023-08-07T13:08:39;2.03;;;0.57;;
77158;SDS011;66129;45.890;13.714;2023-08-07T13:11:05;3.13;;;0.63;;
77158;SDS011;66129;45.890;13.714;2023-08-07T13:13:31;3.95;;;0.50;;
77158;SDS011;66129;45.890;13.714;2023-08-07T13:15:57;1.27;;;0.50;;
77158;SDS011;66129;45.890;13.714;2023-08-07T13:18:22;0.63;;;0.43;;
77158;SDS011;66129;45.890;13.714;2023-08-07T13:20:48;0.40;;;0.35;;
77158;SDS011;66129;45.890;13.714;2023-08-07T13:23:14;0.55;;;0.40;;
77158;SDS011;66129;45.890;13.714;2023-08-07T13:25:40;0.80;;;0.40;;
77158;SDS011;66129;45.890;13.714;2023-08-07T13:28:06;0.35;;;0.30;;
77158;SDS011;66129;45.890;13.714;2023-08-07T13:30:35;1.02;;;0.55;;
77158;SDS011;66129;45.890;13.714;2023-08-07T13:33:01;1.05;;;0.63;;
77158;SDS011;66129;45.890;13.714;2023-08-07T13:35:26;1.65;;;0.57;;
77158;SDS011;66129;45.890;13.714;2023-08-07T13:37:52;0.73;;;0.45;;
77158;SDS011;66129;45.890;13.714;2023-08-07T13:40:17;1.10;;;0.90;;
77158;SDS011;66129;45.890;13.714;2023-08-07T13:42:43;1.65;;;0.65;;
77158;SDS011;66129;45.890;13.714;2023-08-07T13:45:10;0.68;;;0.32;;
77158;SDS011;66129;45.890;13.714;2023-08-07T13:47:36;1.05;;;0.63;;
77158;SDS011;66129;45.890;13.714;2023-08-07T13:50:02;0.52;;;0.30;;
77158;SDS011;66129;45.890;13.714;2023-08-07T13:52:28;0.95;;;0.52;;
77158;SDS011;66129;45.890;13.714;2023-08-07T13:54:56;0.77;;;0.30;;
77158;SDS011;66129;45.890;13.714;2023-08-07T13:57:24;1.08;;;0.30;;
77158;SDS011;66129;45.890;13.714;2023-08-07T13:59:50;0.35;;;0.32;;
77158;SDS011;66129;45.890;13.714;2023-08-07T14:02:15;1.45;;;0.40;;
77158;SDS011;66129;45.890;13.714;2023-08-07T14:04:41;0.88;;;0.38;;
77158;SDS011;66129;45.890;13.714;2023-08-07T14:07:10;2.13;;;0.60;;
77158;SDS011;66129;45.890;13.714;2023-08-07T14:09:36;0.52;;;0.32;;
77158;SDS011;66129;45.890;13.714;2023-08-07T14:12:02;0.32;;;0.32;;
77158;SDS011;66129;45.890;13.714;2023-08-07T14:14:28;0.32;;;0.22;;
77158;SDS011;66129;45.890;13.714;2023-08-07T14:16:53;0.38;;;0.20;;
77158;SDS011;66129;45.890;13.714;2023-08-07T14:19:22;0.57;;;0.40;;
77158;SDS011;66129;45.890;13.714;2023-08-07T14:21:48;1.35;;;0.60;;
77158;SDS011;66129;45.890;13.714;2023-08-07T14:24:14;0.75;;;0.40;;
77158;SDS011;66129;45.890;13.714;2023-08-07T14:26:44;3.30;;;0.75;;
77158;SDS011;66129;45.890;13.714;2023-08-07T14:29:11;1.33;;;0.40;;
77158;SDS011;66129;45.890;13.714;2023-08-07T14:31:38;0.70;;;0.40;;
77158;SDS011;66129;45.890;13.714;2023-08-07T14:34:04;0.77;;;0.40;;
77158;SDS011;66129;45.890;13.714;2023-08-07T14:36:30;1.05;;;0.40;;
77158;SDS011;66129;45.890;13.714;2023-08-07T14:38:56;0.60;;;0.40;;
77158;SDS011;66129;45.890;13.714;2023-08-07T14:41:21;1.65;;;0.57;;